createdAt,value
2018-11-22T12:16:10.945Z,74.40
2018-11-22T12:18:39.590Z,74.60
2018-11-22T12:21:08.186Z,74.50
2018-11-22T12:23:36.672Z,74.80
2018-11-22T12:26:05.920Z,74.70
2018-11-22T12:28:34.595Z,74.40
2018-11-22T12:31:06.546Z,74.40
2018-11-22T12:36:25.722Z,74.50
2018-11-22T12:38:54.204Z,73.90
2018-11-22T12:41:22.686Z,73.20
2018-11-22T12:43:51.244Z,73.00
2018-11-22T12:46:20.143Z,73.30
2018-11-22T12:48:48.716Z,73.10
2018-11-22T12:51:17.354Z,73.00
2018-11-22T12:53:45.856Z,73.50
2018-11-22T12:56:14.401Z,74.40
2018-11-22T12:58:43.114Z,74.80
2018-11-22T13:01:11.761Z,74.90
2018-11-22T13:03:40.429Z,75.20
2018-11-22T13:06:08.977Z,74.70
2018-11-22T13:08:37.605Z,74.40
2018-11-22T13:11:06.292Z,74.50
2018-11-22T13:13:34.944Z,73.90
2018-11-22T13:16:03.958Z,73.30
2018-11-22T13:18:32.718Z,73.50
2018-11-22T13:21:01.407Z,74.40
2018-11-22T13:23:29.990Z,75.10
2018-11-22T13:25:58.815Z,74.90
2018-11-22T13:28:27.795Z,74.50
2018-11-22T13:30:56.407Z,74.50
2018-11-22T13:33:25.074Z,75.20
2018-11-22T13:35:53.917Z,75.20
2018-11-22T13:38:22.594Z,74.00
2018-11-22T13:40:51.110Z,73.70
2018-11-22T13:43:20.140Z,74.20
2018-11-22T13:45:48.767Z,74.20
2018-11-22T13:48:17.426Z,74.10
2018-11-22T13:50:46.083Z,73.10
2018-11-22T13:53:20.360Z,73.20
2018-11-22T13:55:43.665Z,72.70
2018-11-22T13:58:12.243Z,72.90
2018-11-22T14:00:40.930Z,73.00
2018-11-22T14:03:09.577Z,72.70
2018-11-22T14:05:38.386Z,72.70
2018-11-22T14:08:06.937Z,72.60
2018-11-22T14:10:35.689Z,72.40
2018-11-22T14:13:04.481Z,73.10
2018-11-22T14:15:33.357Z,73.40
2018-11-22T14:18:03.681Z,73.50
2018-11-22T14:20:34.723Z,73.30
2018-11-22T14:23:03.330Z,74.20
2018-11-22T14:25:31.878Z,75.10
2018-11-22T14:28:00.805Z,75.10
2018-11-22T14:30:33.048Z,75.80
2018-11-22T14:33:01.790Z,76.00
2018-11-22T14:35:30.380Z,76.40
2018-11-22T14:37:59.021Z,77.10
2018-11-22T14:40:29.158Z,77.30
2018-11-22T14:42:58.400Z,77.50
2018-11-22T14:45:27.823Z,77.40
2018-11-22T14:47:57.803Z,77.30
2018-11-22T14:50:31.730Z,77.20
2018-11-22T14:53:03.583Z,77.30
2018-11-22T14:55:32.346Z,77.80
2018-11-22T14:58:01.026Z,78.50
2018-11-22T15:00:30.192Z,78.70
2018-11-22T15:02:58.849Z,78.80
2018-11-22T15:05:27.491Z,78.30
2018-11-22T15:07:56.081Z,77.80
2018-11-22T15:10:24.593Z,77.80
2018-11-22T15:12:53.144Z,77.90
2018-11-22T15:15:23.256Z,78.00
2018-11-22T15:17:51.917Z,77.20
2018-11-22T15:20:21.255Z,77.00
2018-11-22T15:22:50.907Z,77.00
2018-11-22T15:25:25.921Z,77.00
2018-11-22T15:27:54.719Z,77.50
2018-11-22T15:30:24.567Z,77.30
2018-11-22T15:32:53.274Z,77.10
2018-11-22T15:35:23.139Z,78.10
2018-11-22T15:37:52.234Z,78.30
2018-11-22T15:40:22.114Z,78.40
2018-11-22T15:42:52.027Z,78.30
2018-11-22T15:45:22.202Z,78.50
2018-11-22T15:47:50.997Z,79.10
2018-11-22T15:50:21.236Z,79.60
2018-11-22T15:52:49.834Z,80.00
2018-11-22T15:55:21.052Z,80.40
2018-11-22T15:57:48.828Z,80.50
2018-11-22T16:00:25.884Z,80.30
2018-11-22T16:02:55.093Z,80.20
2018-11-22T16:05:24.637Z,80.30
2018-11-22T16:07:53.170Z,80.70
2018-11-22T16:10:26.938Z,81.30
2018-11-22T16:12:56.903Z,81.80
2018-11-22T16:15:32.445Z,81.90
2018-11-22T16:18:01.085Z,81.60
2018-11-22T16:20:29.747Z,81.70
2018-11-22T16:22:58.437Z,81.40
2018-11-22T16:25:26.972Z,81.40
2018-11-22T16:27:55.505Z,81.60
2018-11-22T16:30:25.283Z,81.40
2018-11-22T16:32:54.091Z,81.40
2018-11-22T16:35:23.671Z,81.30
2018-11-22T16:37:52.410Z,81.40
2018-11-22T16:40:22.442Z,81.60
2018-11-22T16:42:51.920Z,81.90
2018-11-22T16:45:27.662Z,81.80
2018-11-22T16:47:56.787Z,81.70
2018-11-22T16:50:26.807Z,81.80
2018-11-22T16:52:55.551Z,81.80
2018-11-22T16:55:24.776Z,81.80
2018-11-22T16:57:54.605Z,81.80
2018-11-22T17:00:25.558Z,81.80
2018-11-22T17:02:55.152Z,81.80
2018-11-22T17:05:24.005Z,81.80
2018-11-22T17:07:52.640Z,81.80
2018-11-22T17:10:22.622Z,81.70
2018-11-22T17:12:52.970Z,81.60
2018-11-22T17:15:22.897Z,81.60
2018-11-22T17:17:51.973Z,81.50
2018-11-22T17:20:21.552Z,82.30
2018-11-22T17:22:50.745Z,81.60
2018-11-22T17:25:24.025Z,81.60
2018-11-22T17:27:53.903Z,81.80
2018-11-22T17:30:24.040Z,82.40
2018-11-22T17:32:52.740Z,82.20
2018-11-22T17:35:22.714Z,82.10
2018-11-22T17:37:51.746Z,82.10
2018-11-22T17:40:24.516Z,82.00
2018-11-22T17:42:53.178Z,82.00
2018-11-22T17:45:27.252Z,82.20
2018-11-22T17:47:55.964Z,82.30
2018-11-22T17:50:27.185Z,82.40
2018-11-22T17:52:55.867Z,82.50
2018-11-22T17:55:25.816Z,82.70
2018-11-22T17:57:54.467Z,82.90
2018-11-22T18:00:27.511Z,83.10
2018-11-22T18:02:57.599Z,83.10
2018-11-22T18:05:27.365Z,83.40
2018-11-22T18:07:55.056Z,83.50
2018-11-22T18:10:25.093Z,83.60
2018-11-22T18:12:54.627Z,83.50
2018-11-22T18:15:23.890Z,83.30
2018-11-22T18:17:53.188Z,83.30
2018-11-22T18:20:23.220Z,83.30
2018-11-22T18:22:53.059Z,83.50
2018-11-22T18:25:22.869Z,83.40
2018-11-22T18:27:51.401Z,83.30
2018-11-22T18:30:21.466Z,83.30
2018-11-22T18:32:52.648Z,83.30
2018-11-22T18:35:21.177Z,83.30
2018-11-22T18:37:49.929Z,83.30
2018-11-22T18:40:22.018Z,83.50
2018-11-22T18:42:51.359Z,83.60
2018-11-22T18:45:25.256Z,83.70
2018-11-22T18:47:53.997Z,83.70
2018-11-22T18:50:23.988Z,83.70
2018-11-22T18:52:52.697Z,83.70
2018-11-22T18:55:21.478Z,83.80
2018-11-22T18:57:50.292Z,84.10
2018-11-22T19:00:21.413Z,84.70
2018-11-22T19:02:51.270Z,84.60
2018-11-22T19:05:20.022Z,84.50
2018-11-22T19:07:49.637Z,84.50
2018-11-22T19:10:20.774Z,84.60
2018-11-22T19:12:50.410Z,84.50
2018-11-22T19:15:20.330Z,84.40
2018-11-22T19:17:50.774Z,84.50
2018-11-22T19:20:21.865Z,84.50
2018-11-22T19:22:51.050Z,84.40
2018-11-22T19:25:20.416Z,84.30
2018-11-22T19:27:49.217Z,84.30
2018-11-22T19:30:20.071Z,84.30
2018-11-22T19:32:49.639Z,84.40
2018-11-22T19:35:19.577Z,84.20
2018-11-22T19:37:48.600Z,84.20
2018-11-22T19:40:19.991Z,84.10
2018-11-22T19:42:50.157Z,84.20
2018-11-22T19:45:19.880Z,84.30
2018-11-22T19:47:49.033Z,84.20
2018-11-22T19:50:19.690Z,84.80
2018-11-22T19:52:49.365Z,84.00
2018-11-22T19:55:19.429Z,84.10
2018-11-22T19:57:49.646Z,84.10
2018-11-22T20:00:19.239Z,84.10
2018-11-22T20:02:48.380Z,83.90
2018-11-22T20:05:18.183Z,84.00
2018-11-22T20:07:48.132Z,84.00
2018-11-22T20:10:26.477Z,84.00
2018-11-22T20:12:55.297Z,83.90
2018-11-22T20:15:24.152Z,84.00
2018-11-22T20:17:53.336Z,84.30
2018-11-22T20:20:22.733Z,84.30
2018-11-22T20:22:51.732Z,84.30
2018-11-22T20:25:20.545Z,84.30
2018-11-22T20:27:50.264Z,84.20
2018-11-22T20:30:21.665Z,84.10
2018-11-22T20:32:50.673Z,84.20
2018-11-22T20:35:20.293Z,84.00
2018-11-22T20:37:49.718Z,84.10
2018-11-22T20:40:19.591Z,84.10
2018-11-22T20:42:48.114Z,84.20
2018-11-22T20:45:17.977Z,84.10
2018-11-22T20:47:47.730Z,84.10
2018-11-22T20:50:17.718Z,84.20
2018-11-22T20:52:46.387Z,84.30
2018-11-22T20:55:17.819Z,84.50
2018-11-22T20:57:49.848Z,84.50
2018-11-22T21:00:19.865Z,84.50
2018-11-22T21:02:48.519Z,84.60
2018-11-22T21:05:17.864Z,84.60
2018-11-22T21:07:46.696Z,84.60
2018-11-22T21:10:17.718Z,84.60
2018-11-22T21:12:47.183Z,84.70
2018-11-22T21:15:19.312Z,84.90
2018-11-22T21:17:48.653Z,85.00
2018-11-22T21:20:18.431Z,85.00
2018-11-22T21:22:47.096Z,85.00
2018-11-22T21:25:17.957Z,85.00
2018-11-22T21:27:46.540Z,85.00
2018-11-22T21:30:18.897Z,85.00
2018-11-22T21:32:48.340Z,84.90
2018-11-22T21:35:17.225Z,84.90
2018-11-22T21:37:46.561Z,84.90
2018-11-22T21:40:15.950Z,85.00
2018-11-22T21:42:44.664Z,85.00
2018-11-22T21:45:15.792Z,85.00
2018-11-22T21:47:44.343Z,85.00
2018-11-22T21:50:14.463Z,84.90
2018-11-22T21:52:43.109Z,84.80
2018-11-22T21:55:13.782Z,84.70
2018-11-22T21:57:43.093Z,84.60
2018-11-22T22:00:17.374Z,84.60
2018-11-22T22:02:52.431Z,84.70
2018-11-22T22:05:16.029Z,84.80
2018-11-22T22:07:44.655Z,84.80
2018-11-22T22:10:13.389Z,84.80
2018-11-22T22:12:42.360Z,84.90
2018-11-22T22:15:14.253Z,85.10
2018-11-22T22:17:43.622Z,85.20
2018-11-22T22:20:14.468Z,85.20
2018-11-22T22:22:43.464Z,85.20
2018-11-22T22:25:14.295Z,85.20
2018-11-22T22:27:43.085Z,85.20
2018-11-22T22:30:14.059Z,85.20
2018-11-22T22:32:43.272Z,85.20
2018-11-22T22:35:11.909Z,85.20
2018-11-22T22:37:40.855Z,85.20
2018-11-22T22:40:15.052Z,85.20
2018-11-22T22:42:45.689Z,85.40
2018-11-22T22:45:15.330Z,85.40
2018-11-22T22:47:44.617Z,85.40
2018-11-22T22:50:16.656Z,85.40
2018-11-22T22:52:46.113Z,85.40
2018-11-22T22:55:15.170Z,85.30
2018-11-22T22:57:44.042Z,85.20
2018-11-22T23:00:21.788Z,85.00
2018-11-22T23:02:52.235Z,84.70
2018-11-22T23:05:21.325Z,84.60
2018-11-22T23:07:50.112Z,84.70
2018-11-22T23:10:19.481Z,84.90
2018-11-22T23:12:48.087Z,85.00
2018-11-22T23:15:17.324Z,85.00
2018-11-22T23:17:45.904Z,84.90
2018-11-22T23:20:18.058Z,84.90
2018-11-22T23:22:47.039Z,84.90
2018-11-22T23:25:16.192Z,84.90
2018-11-22T23:27:44.863Z,85.00
2018-11-22T23:30:16.411Z,85.00
2018-11-22T23:32:47.597Z,85.00
2018-11-22T23:35:16.421Z,84.80
2018-11-22T23:37:45.155Z,85.00
2018-11-22T23:40:16.126Z,85.10
2018-11-22T23:42:45.017Z,85.20
2018-11-22T23:45:14.952Z,85.20
2018-11-22T23:47:44.042Z,85.30
2018-11-22T23:50:18.994Z,85.40
2018-11-22T23:52:48.870Z,85.50
2018-11-22T23:55:17.412Z,85.50
2018-11-22T23:57:46.290Z,85.60
